createdAt,value
2022-08-02T00:00:03.276Z,84.67
2022-08-02T00:01:03.066Z,84.17
2022-08-02T00:02:03.590Z,84.57
2022-08-02T00:03:03.887Z,84.37
2022-08-02T00:04:04.145Z,83.97
2022-08-02T00:05:03.735Z,83.16
2022-08-02T00:06:03.621Z,82.45
2022-08-02T00:07:03.389Z,82.25
2022-08-02T00:08:02.958Z,81.95
2022-08-02T00:09:03.286Z,83.06
2022-08-02T00:10:03.546Z,82.35
2022-08-02T00:11:03.084Z,81.85
2022-08-02T00:12:03.313Z,81.85
2022-08-02T00:13:03.587Z,82.05
2022-08-02T00:14:03.585Z,82.76
2022-08-02T00:15:03.815Z,82.35
2022-08-02T00:16:03.282Z,82.45
2022-08-02T00:17:03.399Z,84.51
2022-08-02T00:18:02.988Z,83.30
2022-08-02T00:19:03.171Z,82.86
2022-08-02T00:20:02.767Z,83.10
2022-08-02T00:21:03.270Z,85.11
2022-08-02T00:22:03.442Z,83.80
2022-08-02T00:23:03.708Z,83.80
2022-08-02T00:24:29.190Z,85.72
2022-08-02T00:25:03.512Z,83.91
2022-08-02T00:26:03.751Z,83.60
2022-08-02T00:27:03.039Z,83.50
2022-08-02T00:28:03.306Z,84.01
2022-08-02T00:29:03.141Z,83.70
2022-08-02T00:30:03.060Z,83.10
2022-08-02T00:31:03.528Z,82.70
2022-08-02T00:32:03.107Z,82.70
2022-08-02T00:33:03.433Z,83.20
2022-08-02T00:34:09.073Z,82.70
2022-08-02T00:35:03.262Z,82.29
2022-08-02T00:36:03.466Z,82.50
2022-08-02T00:37:03.725Z,83.20
2022-08-02T00:38:04.079Z,84.31
2022-08-02T00:39:03.651Z,85.25
2022-08-02T00:40:04.014Z,84.85
2022-08-02T00:41:03.660Z,84.55
2022-08-02T00:42:03.937Z,85.25
2022-08-02T00:43:04.035Z,85.05
2022-08-02T00:44:03.736Z,84.85
2022-08-02T00:45:04.287Z,84.15
2022-08-02T00:46:04.137Z,83.74
2022-08-02T00:47:03.504Z,83.84
2022-08-02T00:48:03.800Z,83.24
2022-08-02T00:49:03.458Z,83.84
2022-08-02T00:50:03.697Z,85.05
2022-08-02T00:51:03.299Z,85.50
2022-08-02T00:52:03.661Z,85.90
2022-08-02T00:53:03.930Z,86.51
2022-08-02T00:54:03.512Z,85.70
2022-08-02T00:55:03.874Z,85.90
2022-08-02T00:56:03.452Z,85.60
2022-08-02T00:57:03.720Z,84.89
2022-08-02T00:58:03.898Z,86.21
2022-08-02T00:59:03.916Z,88.32
2022-08-02T01:00:03.523Z,86.10
2022-08-02T01:01:03.980Z,87.62
2022-08-02T01:02:03.361Z,85.60
2022-08-02T01:03:03.267Z,86.81
2022-08-02T01:04:03.619Z,85.40
2022-08-02T01:05:03.197Z,84.69
2022-08-02T01:06:11.604Z,84.39
2022-08-02T01:07:03.811Z,84.69
2022-08-02T01:08:04.167Z,84.39
2022-08-02T01:09:03.798Z,84.19
2022-08-02T01:10:04.073Z,84.69
2022-08-02T01:11:03.732Z,85.60
2022-08-02T01:12:04.076Z,85.90
2022-08-02T01:13:03.977Z,86.55
2022-08-02T01:14:03.850Z,86.35
2022-08-02T01:15:04.176Z,85.54
2022-08-02T01:16:03.825Z,86.45
2022-08-02T01:17:04.081Z,85.54
2022-08-02T01:18:04.192Z,86.15
2022-08-02T01:19:03.864Z,85.94
2022-08-02T01:20:04.098Z,86.15
2022-08-02T01:21:03.953Z,85.54
2022-08-02T01:22:03.388Z,85.24
2022-08-02T01:23:03.286Z,84.63
2022-08-02T01:24:03.608Z,84.33
2022-08-02T01:25:03.324Z,84.12
2022-08-02T01:26:03.587Z,85.74
2022-08-02T01:27:03.752Z,85.54
2022-08-02T01:28:03.965Z,85.48
2022-08-02T01:29:03.535Z,88.31
2022-08-02T01:30:03.864Z,87.36
2022-08-02T01:31:03.910Z,87.76
2022-08-02T01:32:03.770Z,87.66
2022-08-02T01:33:04.107Z,87.26
2022-08-02T01:34:03.901Z,88.06
2022-08-02T01:35:04.256Z,87.66
2022-08-02T01:36:04.412Z,89.37
2022-08-02T01:37:03.816Z,89.17
2022-08-02T01:38:03.944Z,87.46
2022-08-02T01:39:02.924Z,87.56
2022-08-02T01:40:02.937Z,87.10
2022-08-02T01:41:02.794Z,87.70
2022-08-02T01:42:03.387Z,86.39
2022-08-02T01:43:04.779Z,86.59
2022-08-02T01:44:04.227Z,86.69
2022-08-02T01:45:03.357Z,85.99
2022-08-02T01:46:03.337Z,85.28
2022-08-02T01:47:03.618Z,85.08
2022-08-02T01:48:02.905Z,85.68
2022-08-02T01:49:03.092Z,86.39
2022-08-02T01:50:02.967Z,85.78
2022-08-02T01:51:02.895Z,86.59
2022-08-02T01:52:04.198Z,86.49
2022-08-02T01:53:03.404Z,86.49
2022-08-02T01:54:03.615Z,85.99
2022-08-02T01:55:03.462Z,88.31
2022-08-02T01:56:03.421Z,86.59
2022-08-02T01:57:03.080Z,85.38
2022-08-02T01:58:03.693Z,85.38
2022-08-02T01:59:03.434Z,85.08
2022-08-02T02:00:03.654Z,84.47
2022-08-02T02:01:03.337Z,84.47
2022-08-02T02:02:03.483Z,84.37
2022-08-02T02:03:03.051Z,85.08
2022-08-02T02:04:02.908Z,84.47
2022-08-02T02:05:03.193Z,84.67
2022-08-02T02:06:03.252Z,84.27
2022-08-02T02:07:03.543Z,85.38
2022-08-02T02:08:03.164Z,85.68
2022-08-02T02:09:02.886Z,84.97
2022-08-02T02:10:03.150Z,84.97
2022-08-02T02:12:05.885Z,86.19
2022-08-02T02:12:09.653Z,85.28
2022-08-02T02:13:02.237Z,85.58
2022-08-02T02:14:02.700Z,85.28
2022-08-02T02:15:02.932Z,85.28
2022-08-02T02:16:02.654Z,85.11
2022-08-02T02:17:03.335Z,85.52
2022-08-02T02:18:12.951Z,86.02
2022-08-02T02:19:02.523Z,86.22
2022-08-02T02:20:03.203Z,86.93
2022-08-02T02:21:03.422Z,88.04
2022-08-02T02:22:02.689Z,88.85
2022-08-02T02:23:03.125Z,89.87
2022-08-02T02:24:02.411Z,87.84
2022-08-02T02:25:02.269Z,88.35
2022-08-02T02:26:03.834Z,87.13
2022-08-02T02:27:02.861Z,86.53
2022-08-02T02:28:02.385Z,86.93
2022-08-02T02:29:02.569Z,87.54
2022-08-02T02:30:02.905Z,87.44
2022-08-02T02:31:02.545Z,87.34
2022-08-02T02:32:02.806Z,87.74
2022-08-02T02:33:03.183Z,87.44
2022-08-02T02:34:03.441Z,86.22
2022-08-02T02:35:03.015Z,86.83
2022-08-02T02:36:03.293Z,88.75
2022-08-02T02:37:02.884Z,87.84
2022-08-02T02:38:03.088Z,87.74
2022-08-02T02:39:03.464Z,87.54
2022-08-02T02:40:02.990Z,87.13
2022-08-02T02:41:03.259Z,88.55
2022-08-02T02:42:02.492Z,86.73
2022-08-02T02:43:02.632Z,85.93
2022-08-02T02:44:02.899Z,85.72
2022-08-02T02:45:03.183Z,85.42
2022-08-02T02:46:02.747Z,85.52
2022-08-02T02:47:03.019Z,85.93
2022-08-02T02:48:03.505Z,85.72
2022-08-02T02:49:03.172Z,85.42
2022-08-02T02:50:03.509Z,85.05
2022-08-02T02:51:03.057Z,84.91
2022-08-02T02:52:02.380Z,85.42
2022-08-02T02:53:02.611Z,85.76
2022-08-02T02:54:32.009Z,86.16
2022-08-02T02:55:02.526Z,86.87
2022-08-02T02:56:02.922Z,86.57
2022-08-02T02:57:02.743Z,86.07
2022-08-02T02:58:02.619Z,86.07
2022-08-02T02:59:02.860Z,86.27
2022-08-02T03:00:02.525Z,86.98
2022-08-02T03:01:02.999Z,86.57
2022-08-02T03:02:03.420Z,86.98
2022-08-02T03:03:03.662Z,86.47
2022-08-02T03:04:03.256Z,86.31
2022-08-02T03:05:03.601Z,86.10
2022-08-02T03:06:03.172Z,85.39
2022-08-02T03:07:03.704Z,85.39
2022-08-02T03:08:03.973Z,85.70
2022-08-02T03:09:04.247Z,85.39
2022-08-02T03:10:03.820Z,85.39
2022-08-02T03:11:04.498Z,85.50
2022-08-02T03:12:03.891Z,85.39
2022-08-02T03:13:03.435Z,85.50
2022-08-02T03:14:03.697Z,85.10
2022-08-02T03:15:03.257Z,85.10
2022-08-02T03:16:03.806Z,87.93
2022-08-02T03:17:02.912Z,87.22
2022-08-02T03:18:02.795Z,86.00
2022-08-02T03:19:02.622Z,85.80
2022-08-02T03:20:02.442Z,88.84
2022-08-02T03:21:02.368Z,88.43
2022-08-02T03:22:03.681Z,86.71
2022-08-02T03:23:03.950Z,87.42
2022-08-02T03:24:04.021Z,87.52
2022-08-02T03:25:03.710Z,87.02
2022-08-02T03:26:03.484Z,86.91
2022-08-02T03:27:02.964Z,86.91
2022-08-02T03:28:02.918Z,87.22
2022-08-02T03:29:10.004Z,86.41
2022-08-02T03:30:03.537Z,86.25
2022-08-02T03:31:03.544Z,85.94
2022-08-02T03:32:03.478Z,86.25
2022-08-02T03:33:03.688Z,85.94
2022-08-02T03:34:03.788Z,86.65
2022-08-02T03:35:04.411Z,87.05
2022-08-02T03:36:03.896Z,86.35
2022-08-02T03:37:02.859Z,86.25
2022-08-02T03:38:02.938Z,86.55
2022-08-02T03:39:03.260Z,87.26
2022-08-02T03:40:03.051Z,87.16
2022-08-02T03:41:03.087Z,87.26
2022-08-02T03:42:03.516Z,87.05
2022-08-02T03:43:03.362Z,87.16
2022-08-02T03:44:02.966Z,86.96
2022-08-02T03:45:08.110Z,86.96
2022-08-02T03:46:03.652Z,86.55
2022-08-02T03:47:03.650Z,86.35
2022-08-02T03:48:30.494Z,86.55
2022-08-02T03:49:03.843Z,86.39
2022-08-02T03:50:03.620Z,86.49
2022-08-02T03:51:03.570Z,86.39
2022-08-02T03:52:03.530Z,85.99
2022-08-02T03:53:03.445Z,85.88
2022-08-02T03:54:03.466Z,85.99
2022-08-02T03:55:04.124Z,85.78
2022-08-02T03:56:03.832Z,86.59
2022-08-02T03:57:02.973Z,86.29
2022-08-02T03:58:03.143Z,86.49
2022-08-02T03:59:03.024Z,87.20
2022-08-02T04:00:03.123Z,87.20
2022-08-02T04:01:02.732Z,86.69
2022-08-02T04:02:02.634Z,86.59
2022-08-02T04:03:03.034Z,86.19
2022-08-02T04:04:03.331Z,86.39
2022-08-02T04:05:03.009Z,86.49
2022-08-02T04:06:04.266Z,86.79
2022-08-02T04:07:02.978Z,86.69
2022-08-02T04:08:37.270Z,87.51
2022-08-02T04:09:02.980Z,88.31
2022-08-02T04:10:02.652Z,88.21
2022-08-02T04:11:03.119Z,88.31
2022-08-02T04:12:03.209Z,87.81
2022-08-02T04:13:03.063Z,87.20
2022-08-02T04:14:03.307Z,86.90
2022-08-02T04:15:03.134Z,87.30
2022-08-02T04:16:02.849Z,86.69
2022-08-02T04:17:03.014Z,87.00
2022-08-02T04:18:02.725Z,87.04
2022-08-02T04:19:02.403Z,86.83
2022-08-02T04:20:03.011Z,86.59
2022-08-02T04:21:02.687Z,87.10
2022-08-02T04:22:03.228Z,87.71
2022-08-02T04:23:03.019Z,88.01
2022-08-02T04:24:02.818Z,88.56
2022-08-02T04:25:02.935Z,89.26
2022-08-02T04:26:02.656Z,89.06
2022-08-02T04:27:19.770Z,88.66
2022-08-02T04:28:17.430Z,88.66
2022-08-02T04:29:02.924Z,88.76
2022-08-02T04:30:03.407Z,88.56
2022-08-02T04:31:03.103Z,89.06
2022-08-02T04:32:03.569Z,88.56
2022-08-02T04:33:03.274Z,88.35
2022-08-02T04:34:03.660Z,88.05
2022-08-02T04:35:20.000Z,87.65
2022-08-02T04:36:03.647Z,87.54
2022-08-02T04:37:03.191Z,87.85
2022-08-02T04:38:09.647Z,87.24
2022-08-02T04:39:02.648Z,87.04
2022-08-02T04:40:03.127Z,87.65
2022-08-02T04:41:02.894Z,87.34
2022-08-02T04:42:03.340Z,87.74
2022-08-02T04:43:03.070Z,87.85
2022-08-02T04:44:02.860Z,88.76
2022-08-02T04:45:03.283Z,89.06
2022-08-02T04:46:03.099Z,89.26
2022-08-02T04:47:06.771Z,89.47
2022-08-02T04:48:05.801Z,90.08
2022-08-02T04:49:03.303Z,90.28
2022-08-02T04:50:03.508Z,90.69
2022-08-02T04:51:03.299Z,90.18
2022-08-02T04:52:03.733Z,90.28
2022-08-02T04:53:03.417Z,89.98
2022-08-02T04:54:06.319Z,89.67
2022-08-02T04:55:03.803Z,89.26
2022-08-02T04:56:03.734Z,89.37
2022-08-02T04:57:03.687Z,89.17
2022-08-02T04:58:13.571Z,89.17
2022-08-02T04:59:04.017Z,88.76
2022-08-02T05:00:03.828Z,88.62
2022-08-02T05:01:04.293Z,89.02
2022-08-02T05:02:03.254Z,89.43
2022-08-02T05:03:03.012Z,89.73
2022-08-02T05:04:03.491Z,89.53
2022-08-02T05:05:08.242Z,89.63
2022-08-02T05:06:03.048Z,90.03
2022-08-02T05:07:03.609Z,89.53
2022-08-02T05:08:03.679Z,89.83
2022-08-02T05:09:04.091Z,90.44
2022-08-02T05:10:03.811Z,90.54
2022-08-02T05:11:03.618Z,90.75
2022-08-02T05:12:03.119Z,90.24
2022-08-02T05:13:03.527Z,90.75
2022-08-02T05:14:02.871Z,90.54
2022-08-02T05:15:03.508Z,90.14
2022-08-02T05:16:03.430Z,90.44
2022-08-02T05:17:03.207Z,90.24
2022-08-02T05:18:03.622Z,90.75
2022-08-02T05:19:03.645Z,90.75
2022-08-02T05:20:03.457Z,90.84
2022-08-02T05:21:03.272Z,90.95
2022-08-02T05:22:02.800Z,91.05
2022-08-02T05:23:03.269Z,90.84
2022-08-02T05:24:02.964Z,91.05
2022-08-02T05:25:02.882Z,91.35
2022-08-02T05:26:02.983Z,91.55
2022-08-02T05:27:03.301Z,91.31
2022-08-02T05:28:06.117Z,91.31
2022-08-02T05:29:03.503Z,90.80
2022-08-02T05:30:03.307Z,90.09
2022-08-02T05:31:03.744Z,89.48
2022-08-02T05:32:03.020Z,88.94
2022-08-02T05:33:03.451Z,88.84
2022-08-02T05:34:03.371Z,89.04
2022-08-02T05:35:03.102Z,89.04
2022-08-02T05:36:03.439Z,88.70
2022-08-02T05:37:03.179Z,88.70
2022-08-02T05:38:03.489Z,88.09
2022-08-02T05:39:04.971Z,88.39
2022-08-02T05:40:03.133Z,88.04
2022-08-02T05:41:03.690Z,88.35
2022-08-02T05:42:03.861Z,88.15
2022-08-02T05:43:03.639Z,87.90
2022-08-02T05:44:04.124Z,88.31
2022-08-02T05:45:03.828Z,90.73
2022-08-02T05:46:03.945Z,90.12
2022-08-02T05:47:03.813Z,89.68
2022-08-02T05:48:04.284Z,89.98
2022-08-02T05:49:04.351Z,89.58
2022-08-02T05:50:04.186Z,89.23
2022-08-02T05:51:04.058Z,88.83
2022-08-02T05:52:03.844Z,89.34
2022-08-02T05:53:03.801Z,89.09
2022-08-02T05:54:04.269Z,88.89
2022-08-02T05:55:04.001Z,88.99
2022-08-02T05:56:08.375Z,89.95
2022-08-02T05:57:02.922Z,90.06
2022-08-02T05:58:02.907Z,89.75
2022-08-02T05:59:02.974Z,89.35
2022-08-02T06:00:03.680Z,89.51
2022-08-02T06:01:02.897Z,89.21
2022-08-02T06:02:02.198Z,89.57
2022-08-02T06:03:02.422Z,89.77
2022-08-02T06:04:02.339Z,89.03
2022-08-02T06:05:01.871Z,89.23
2022-08-02T06:06:02.009Z,89.18
2022-08-02T06:07:02.185Z,89.18
2022-08-02T06:08:02.320Z,88.78
2022-08-02T06:09:02.460Z,88.84
2022-08-02T06:10:01.935Z,88.43
2022-08-02T06:11:02.601Z,88.23
2022-08-02T06:12:03.033Z,88.13
2022-08-02T06:13:02.722Z,87.69
2022-08-02T06:14:02.266Z,87.08
2022-08-02T06:15:02.379Z,87.29
2022-08-02T06:16:03.184Z,87.59
2022-08-02T06:17:03.796Z,87.04
2022-08-02T06:18:02.790Z,86.94
2022-08-02T06:19:02.936Z,86.74
2022-08-02T06:20:02.476Z,86.70
2022-08-02T06:22:31.512Z,86.80
2022-08-02T06:22:35.751Z,86.30
2022-08-02T06:23:01.975Z,86.00
2022-08-02T06:24:02.382Z,86.20
2022-08-02T06:25:01.945Z,85.86
2022-08-02T06:26:01.985Z,85.56
2022-08-02T06:27:01.895Z,85.05
2022-08-02T06:28:02.002Z,85.25
2022-08-02T06:29:02.094Z,85.05
2022-08-02T06:30:02.181Z,85.11
2022-08-02T06:31:02.045Z,84.61
2022-08-02T06:32:02.094Z,84.51
2022-08-02T06:33:02.193Z,84.71
2022-08-02T06:34:02.962Z,84.21
2022-08-02T06:35:01.903Z,84.57
2022-08-02T06:36:02.744Z,84.37
2022-08-02T06:37:02.231Z,84.47
2022-08-02T06:38:02.511Z,84.03
2022-08-02T06:39:02.544Z,83.93
2022-08-02T06:40:02.293Z,84.03
2022-08-02T06:41:02.403Z,83.79
2022-08-02T06:42:02.250Z,83.89
2022-08-02T06:43:03.087Z,83.49
2022-08-02T06:44:26.141Z,83.45
2022-08-02T06:45:02.650Z,82.85
2022-08-02T06:47:09.339Z,82.65
2022-08-02T06:47:12.536Z,82.61
2022-08-02T06:48:02.756Z,82.41
2022-08-02T06:49:02.615Z,82.41
2022-08-02T06:50:02.907Z,81.77
2022-08-02T06:51:02.797Z,81.57
2022-08-02T06:52:03.271Z,81.67
2022-08-02T06:53:03.068Z,81.13
2022-08-02T06:54:02.903Z,80.83
2022-08-02T06:55:03.285Z,80.63
2022-08-02T06:56:03.082Z,80.39
2022-08-02T06:57:03.457Z,79.69
2022-08-02T06:58:03.126Z,79.29
2022-08-02T06:59:06.050Z,79.39
2022-08-02T07:00:03.437Z,79.39
2022-08-02T07:01:03.437Z,79.75
2022-08-02T07:02:03.103Z,79.35
2022-08-02T07:03:02.845Z,79.05
2022-08-02T07:04:02.686Z,79.55
2022-08-02T07:05:03.152Z,79.96
2022-08-02T07:06:02.695Z,79.61
2022-08-02T07:07:03.250Z,79.61
2022-08-02T07:08:03.004Z,79.52
2022-08-02T07:09:20.140Z,79.11
2022-08-02T07:10:02.904Z,78.68
2022-08-02T07:11:03.212Z,78.68
2022-08-02T07:12:03.639Z,78.78
2022-08-02T07:13:03.279Z,78.64
2022-08-02T07:14:03.614Z,78.54
2022-08-02T07:15:03.896Z,78.54
2022-08-02T07:16:03.760Z,78.24
2022-08-02T07:17:03.133Z,78.94
2022-08-02T07:18:02.881Z,78.70
2022-08-02T07:19:03.431Z,78.20
2022-08-02T07:20:03.176Z,77.77
2022-08-02T07:21:02.868Z,77.47
2022-08-02T07:22:03.565Z,77.77
2022-08-02T07:23:03.423Z,77.63
2022-08-02T07:24:03.366Z,76.43
2022-08-02T07:25:03.188Z,76.34
2022-08-02T07:26:05.408Z,76.04
2022-08-02T07:27:12.473Z,75.20
2022-08-02T07:28:03.613Z,75.50
2022-08-02T07:29:03.768Z,74.90
2022-08-02T07:30:02.947Z,74.30
2022-08-02T07:31:03.728Z,75.07
2022-08-02T07:32:02.824Z,75.16
2022-08-02T07:33:02.644Z,74.57
2022-08-02T07:34:02.763Z,75.16
2022-08-02T07:35:06.577Z,75.16
2022-08-02T07:36:04.731Z,75.63
2022-08-02T07:37:03.318Z,75.03
2022-08-02T07:38:03.083Z,74.33
2022-08-02T07:39:03.178Z,74.10
2022-08-02T07:40:03.578Z,72.91
2022-08-02T07:41:03.381Z,73.60
2022-08-02T07:42:03.549Z,72.91
2022-08-02T07:43:04.361Z,73.27
2022-08-02T07:44:03.015Z,72.67
2022-08-02T07:45:03.105Z,73.77
2022-08-02T07:46:03.579Z,72.04
2022-08-02T07:47:03.175Z,71.64
2022-08-02T07:48:02.594Z,72.04
2022-08-02T07:49:03.177Z,72.50
2022-08-02T07:50:02.988Z,70.62
2022-08-02T07:51:02.890Z,70.32
2022-08-02T07:52:03.306Z,70.02
2022-08-02T07:53:02.890Z,72.50
2022-08-02T07:54:04.138Z,71.88
2022-08-02T07:55:03.137Z,70.98
2022-08-02T07:56:02.903Z,70.98
2022-08-02T07:57:03.725Z,71.64
2022-08-02T07:58:03.713Z,71.25
2022-08-02T07:59:03.658Z,70.95
2022-08-02T08:00:03.374Z,68.73
2022-08-02T08:01:03.789Z,69.62
2022-08-02T08:02:03.187Z,68.53
2022-08-02T08:03:02.923Z,68.53
2022-08-02T08:04:02.730Z,70.51
2022-08-02T08:05:03.134Z,70.68
2022-08-02T08:06:03.399Z,69.98
2022-08-02T08:07:03.780Z,68.66
2022-08-02T08:08:03.543Z,67.87
2022-08-02T08:09:03.887Z,68.66
2022-08-02T08:10:03.403Z,67.87
2022-08-02T08:11:03.844Z,68.24
2022-08-02T08:12:04.328Z,66.06
2022-08-02T08:13:04.114Z,69.23
2022-08-02T08:14:03.812Z,66.13
2022-08-02T08:15:03.890Z,67.31
2022-08-02T08:16:03.686Z,64.54
2022-08-02T08:17:03.298Z,66.82
2022-08-02T08:18:03.300Z,67.31
2022-08-02T08:19:03.685Z,66.52
2022-08-02T08:20:03.486Z,65.23
2022-08-02T08:21:04.331Z,68.07
2022-08-02T08:22:02.969Z,65.70
2022-08-02T08:23:03.416Z,64.90
2022-08-02T08:24:03.076Z,66.09
2022-08-02T08:25:02.930Z,64.81
2022-08-02T08:26:03.206Z,64.90
2022-08-02T08:27:03.692Z,65.50
2022-08-02T08:28:04.063Z,66.06
2022-08-02T08:29:03.623Z,66.46
2022-08-02T08:30:03.751Z,64.38
2022-08-02T08:31:04.073Z,64.97
2022-08-02T08:32:03.810Z,64.38
2022-08-02T08:33:04.380Z,63.85
2022-08-02T08:34:04.016Z,64.74
2022-08-02T08:35:04.026Z,62.77
2022-08-02T08:36:03.815Z,62.93
2022-08-02T08:37:03.302Z,61.35
2022-08-02T08:38:07.419Z,61.45
2022-08-02T08:39:03.536Z,60.76
2022-08-02T08:40:03.322Z,62.04
2022-08-02T08:41:03.819Z,61.75
2022-08-02T08:42:03.484Z,60.76
2022-08-02T08:43:03.953Z,63.59
2022-08-02T08:44:03.878Z,62.12
2022-08-02T08:45:03.687Z,60.14
2022-08-02T08:46:03.426Z,59.64
2022-08-02T08:47:03.076Z,60.83
2022-08-02T08:48:03.452Z,59.84
2022-08-02T08:49:03.304Z,59.91
2022-08-02T08:50:03.734Z,60.41
2022-08-02T08:51:03.556Z,61.19
2022-08-02T08:52:03.365Z,59.59
2022-08-02T08:53:03.838Z,59.98
2022-08-02T08:54:03.591Z,60.57
2022-08-02T08:55:03.334Z,60.44
2022-08-02T08:56:03.762Z,59.95
2022-08-02T08:57:03.510Z,58.84
2022-08-02T08:58:03.880Z,58.84
2022-08-02T08:59:03.412Z,56.96
2022-08-02T09:00:03.955Z,56.08
2022-08-02T09:01:04.039Z,57.65
2022-08-02T09:02:17.215Z,58.71
2022-08-02T09:03:02.716Z,58.42
2022-08-02T09:04:02.970Z,57.23
2022-08-02T09:05:02.735Z,55.66
2022-08-02T09:06:02.830Z,56.71
2022-08-02T09:07:03.277Z,58.69
2022-08-02T09:08:03.625Z,57.79
2022-08-02T09:09:03.355Z,58.39
2022-08-02T09:10:03.340Z,56.39
2022-08-02T09:11:03.487Z,55.60
2022-08-02T09:12:03.030Z,56.79
2022-08-02T09:13:02.824Z,57.77
2022-08-02T09:14:02.918Z,56.29
2022-08-02T09:15:03.453Z,56.66
2022-08-02T09:16:12.633Z,57.74
2022-08-02T09:17:03.078Z,56.95
2022-08-02T09:18:02.860Z,58.04
2022-08-02T09:19:02.919Z,56.04
2022-08-02T09:20:03.431Z,56.24
2022-08-02T09:21:04.541Z,55.85
2022-08-02T09:22:03.576Z,55.26
2022-08-02T09:23:03.402Z,54.57
2022-08-02T09:24:03.996Z,54.96
2022-08-02T09:25:03.623Z,56.34
2022-08-02T09:26:07.423Z,55.72
2022-08-02T09:27:03.634Z,53.56
2022-08-02T09:28:03.469Z,54.54
2022-08-02T09:29:03.812Z,54.35
2022-08-02T09:30:13.528Z,52.87
2022-08-02T09:31:03.373Z,55.23
2022-08-02T09:32:03.200Z,56.41
2022-08-02T09:33:05.644Z,56.41
2022-08-02T09:34:03.170Z,52.87
2022-08-02T09:35:03.073Z,53.36
2022-08-02T09:36:06.548Z,54.44
2022-08-02T09:37:02.968Z,54.12
2022-08-02T09:38:02.785Z,55.10
2022-08-02T09:39:03.156Z,53.83
2022-08-02T09:40:02.625Z,54.52
2022-08-02T09:41:03.234Z,53.83
2022-08-02T09:42:03.434Z,53.23
2022-08-02T09:43:03.281Z,51.17
2022-08-02T09:44:06.181Z,50.39
2022-08-02T09:45:03.605Z,51.57
2022-08-02T09:46:03.435Z,54.41
2022-08-02T09:47:03.809Z,53.33
2022-08-02T09:48:03.635Z,53.92
2022-08-02T09:49:04.204Z,54.71
2022-08-02T09:50:04.093Z,52.15
2022-08-02T09:51:03.618Z,53.53
2022-08-02T09:52:03.229Z,53.14
2022-08-02T09:53:02.929Z,52.55
2022-08-02T09:54:08.869Z,55.20
2022-08-02T09:55:03.220Z,54.12
2022-08-02T09:56:02.891Z,53.92
2022-08-02T09:57:03.417Z,53.11
2022-08-02T09:58:03.297Z,53.11
2022-08-02T09:59:03.143Z,52.82
2022-08-02T10:00:03.680Z,52.92
2022-08-02T10:01:03.705Z,53.90
2022-08-02T10:02:17.949Z,54.36
2022-08-02T10:03:02.553Z,51.32
2022-08-02T10:04:02.424Z,51.12
2022-08-02T10:05:02.641Z,51.32
2022-08-02T10:06:03.081Z,52.89
2022-08-02T10:07:02.937Z,52.50
2022-08-02T10:08:02.819Z,53.67
2022-08-02T10:09:02.659Z,53.26
2022-08-02T10:10:02.505Z,53.75
2022-08-02T10:11:02.563Z,53.55
2022-08-02T10:12:03.564Z,54.33
2022-08-02T10:13:02.812Z,51.17
2022-08-02T10:14:03.254Z,52.55
2022-08-02T10:15:03.046Z,51.37
2022-08-02T10:16:02.876Z,53.53
2022-08-02T10:17:03.346Z,52.74
2022-08-02T10:18:12.980Z,51.76
2022-08-02T10:19:02.887Z,51.27
2022-08-02T10:20:04.979Z,52.25
2022-08-02T10:21:03.323Z,51.76
2022-08-02T10:22:02.910Z,50.39
2022-08-02T10:23:02.704Z,52.35
2022-08-02T10:24:02.449Z,52.74
2022-08-02T10:25:03.023Z,52.06
2022-08-02T10:26:02.711Z,51.86
2022-08-02T10:27:03.082Z,51.86
2022-08-02T10:28:05.617Z,51.86
2022-08-02T10:29:02.639Z,51.96
2022-08-02T10:30:03.093Z,53.33
2022-08-02T10:31:04.818Z,53.13
2022-08-02T10:32:03.451Z,52.81
2022-08-02T10:33:03.507Z,52.42
2022-08-02T10:34:03.189Z,52.23
2022-08-02T10:35:23.308Z,52.91
2022-08-02T10:36:07.029Z,52.10
2022-08-02T10:37:03.650Z,50.34
2022-08-02T10:38:03.580Z,50.34
2022-08-02T10:39:03.352Z,50.04
2022-08-02T10:40:03.486Z,50.93
2022-08-02T10:41:03.205Z,51.90
2022-08-02T10:42:03.371Z,51.22
2022-08-02T10:43:03.123Z,50.04
2022-08-02T10:44:03.486Z,49.65
2022-08-02T10:45:03.288Z,50.12
2022-08-02T10:46:02.948Z,51.88
2022-08-02T10:47:03.434Z,52.47
2022-08-02T10:48:03.273Z,51.88
2022-08-02T10:49:18.547Z,49.82
2022-08-02T10:50:03.375Z,48.24
2022-08-02T10:51:03.039Z,48.16
2022-08-02T10:52:04.027Z,46.69
2022-08-02T10:53:03.682Z,47.77
2022-08-02T10:54:03.479Z,46.20
2022-08-02T10:55:03.544Z,46.59
2022-08-02T10:56:04.047Z,50.42
2022-08-02T10:57:03.647Z,50.42
2022-08-02T10:58:03.381Z,50.81
2022-08-02T10:59:03.703Z,51.46
2022-08-02T11:00:03.715Z,49.51
2022-08-02T11:01:03.655Z,50.88
2022-08-02T11:02:02.542Z,48.04
2022-08-02T11:03:02.873Z,48.53
2022-08-02T11:04:05.062Z,49.31
2022-08-02T11:05:03.155Z,49.60
2022-08-02T11:06:02.975Z,48.24
2022-08-02T11:07:02.753Z,49.51
2022-08-02T11:08:03.358Z,49.24
2022-08-02T11:09:04.400Z,48.36
2022-08-02T11:10:02.894Z,48.07
2022-08-02T11:11:03.480Z,48.94
2022-08-02T11:12:03.251Z,51.10
2022-08-02T11:13:02.360Z,52.25
2022-08-02T11:14:02.783Z,49.04
2022-08-02T11:15:02.279Z,49.11
2022-08-02T11:16:05.352Z,49.41
2022-08-02T11:17:02.943Z,49.80
2022-08-02T11:18:02.719Z,50.98
2022-08-02T11:19:03.172Z,50.59
2022-08-02T11:20:02.980Z,51.17
2022-08-02T11:21:02.774Z,48.99
2022-08-02T11:22:03.168Z,48.31
2022-08-02T11:23:02.918Z,46.84
2022-08-02T11:24:03.741Z,48.80
2022-08-02T11:25:03.401Z,48.60
2022-08-02T11:26:10.713Z,48.50
2022-08-02T11:27:03.020Z,48.90
2022-08-02T11:28:03.560Z,47.53
2022-08-02T11:29:03.222Z,47.82
2022-08-02T11:30:03.050Z,49.36
2022-08-02T11:31:03.685Z,49.75
2022-08-02T11:32:03.475Z,49.55
2022-08-02T11:33:03.315Z,49.73
2022-08-02T11:34:09.169Z,47.77
2022-08-02T11:35:03.602Z,48.94
2022-08-02T11:36:03.851Z,47.67
2022-08-02T11:37:03.691Z,48.63
2022-08-02T11:38:02.564Z,48.63
2022-08-02T11:39:03.048Z,45.02
2022-08-02T11:40:02.880Z,47.27
2022-08-02T11:41:05.990Z,47.46
2022-08-02T11:42:02.537Z,47.05
2022-08-02T11:43:03.446Z,47.53
2022-08-02T11:44:03.340Z,44.12
2022-08-02T11:45:03.845Z,46.17
2022-08-02T11:46:03.686Z,46.17
2022-08-02T11:47:03.553Z,46.24
2022-08-02T11:48:03.942Z,45.07
2022-08-02T11:49:03.815Z,45.46
2022-08-02T11:50:04.160Z,44.09
2022-08-02T11:51:03.693Z,45.07
2022-08-02T11:52:04.121Z,44.38
2022-08-02T11:53:03.283Z,45.75
2022-08-02T11:54:03.104Z,44.76
2022-08-02T11:55:03.607Z,43.49
2022-08-02T11:56:03.429Z,44.56
2022-08-02T11:57:03.152Z,43.78
2022-08-02T11:58:05.574Z,42.61
2022-08-02T11:59:03.174Z,44.27
2022-08-02T12:00:03.270Z,44.17
2022-08-02T12:01:03.304Z,43.78
2022-08-02T12:02:03.132Z,43.39
2022-08-02T12:03:03.072Z,43.88
2022-08-02T12:04:03.651Z,41.73
2022-08-02T12:05:03.509Z,44.07
2022-08-02T12:06:06.597Z,46.02
2022-08-02T12:07:03.582Z,44.46
2022-08-02T12:08:04.294Z,43.68
2022-08-02T12:09:03.822Z,42.12
2022-08-02T12:10:03.685Z,41.35
2022-08-02T12:11:03.729Z,44.76
2022-08-02T12:12:04.299Z,44.66
2022-08-02T12:13:03.285Z,45.83
2022-08-02T12:14:03.139Z,45.61
2022-08-02T12:15:03.475Z,42.98
2022-08-02T12:16:07.170Z,42.59
2022-08-02T12:17:03.421Z,42.66
2022-08-02T12:18:03.451Z,43.25
2022-08-02T12:19:03.265Z,42.28
2022-08-02T12:20:03.096Z,42.57
2022-08-02T12:21:03.532Z,40.03
2022-08-02T12:22:03.345Z,41.32
2022-08-02T12:23:03.171Z,41.32
2022-08-02T12:24:03.716Z,43.66
2022-08-02T12:25:03.539Z,43.44
2022-08-02T12:26:03.235Z,41.79
2022-08-02T12:27:03.657Z,41.79
2022-08-02T12:28:03.426Z,40.93
2022-08-02T12:29:03.953Z,41.13
2022-08-02T12:30:03.799Z,42.49
2022-08-02T12:31:03.666Z,41.22
2022-08-02T12:32:03.479Z,44.54
2022-08-02T12:33:04.566Z,44.93
2022-08-02T12:34:04.380Z,44.13
2022-08-02T12:35:04.213Z,43.44
2022-08-02T12:36:03.957Z,41.40
2022-08-02T12:37:04.566Z,41.99
2022-08-02T12:38:03.398Z,41.11
2022-08-02T12:39:03.754Z,40.16
2022-08-02T12:40:03.545Z,39.76
2022-08-02T12:41:04.014Z,41.81
2022-08-02T12:42:03.837Z,40.16
2022-08-02T12:43:05.219Z,42.20
2022-08-02T12:44:03.771Z,44.54
2022-08-02T12:45:03.543Z,43.74
2022-08-02T12:46:03.581Z,43.05
2022-08-02T12:47:04.133Z,41.52
2022-08-02T12:48:03.738Z,44.05
2022-08-02T12:49:18.011Z,43.74
2022-08-02T12:50:04.207Z,44.13
2022-08-02T12:51:03.924Z,44.90
2022-08-02T12:52:06.828Z,44.62